Time;durP1;ratioP1;P1;durP2;ratioP2;P2;SDS_P1;SDS_P2;PMS_P1;PMS_P2;Temp;Humidity;BMP_temperature;BMP_pressure;BME280_temperature;BME280_humidity;BME280_pressure;Samples;Min_cycle;Max_cycle;Signal;HPM_P1;HPM_P2
2021/11/06 00:00:23;;;;;;;12.53;6.22;;;;;;;11.24;99.97;100540.17;1733154;82;21608;-72
2021/11/06 00:02:49;;;;;;;11.10;5.60;;;;;;;11.21;100.00;100537.66;1724070;82;21559;-72
2021/11/06 00:05:16;;;;;;;13.83;6.35;;;;;;;11.17;100.00;100530.28;1705565;82;21129;-71
2021/11/06 00:07:42;;;;;;;8.85;5.67;;;;;;;11.15;100.00;100536.06;1704502;84;21042;-72
2021/11/06 00:10:10;;;;;;;17.10;6.05;;;;;;;11.11;100.00;100531.36;1684178;84;21073;-72
2021/11/06 00:12:38;;;;;;;10.45;6.67;;;;;;;11.06;100.00;100537.22;1704509;84;21747;-71
2021/11/06 00:15:06;;;;;;;9.38;5.80;;;;;;;11.02;100.00;100547.48;1704222;84;21608;-72
2021/11/06 00:17:35;;;;;;;11.40;6.28;;;;;;;10.95;100.00;100556.50;1704501;84;21840;-71
2021/11/06 00:20:04;;;;;;;9.10;5.42;;;;;;;10.89;100.00;100560.62;1704181;82;21059;-70
2021/11/06 00:22:32;;;;;;;10.25;6.40;;;;;;;10.82;100.00;100565.69;1704750;84;21101;-71
2021/11/06 00:25:01;;;;;;;8.73;6.05;;;;;;;10.77;100.00;100553.98;1704277;84;21054;-71
2021/11/06 00:27:27;;;;;;;11.28;5.87;;;;;;;10.76;100.00;100559.28;1704613;84;21081;-71
2021/11/06 00:29:56;;;;;;;9.98;6.05;;;;;;;10.69;100.00;100566.05;1704410;84;21105;-71
2021/11/06 00:32:22;;;;;;;9.95;5.67;;;;;;;10.63;100.00;100558.35;1703929;83;21501;-73
2021/11/06 00:34:49;;;;;;;10.78;6.15;;;;;;;10.57;100.00;100561.16;1704360;84;21057;-71
2021/11/06 00:37:16;;;;;;;7.78;4.90;;;;;;;10.51;100.00;100560.02;1704370;84;21068;-71
2021/11/06 00:39:43;;;;;;;7.17;4.85;;;;;;;10.44;100.00;100550.58;1704126;83;21803;-71
2021/11/06 00:42:09;;;;;;;9.68;4.75;;;;;;;10.35;100.00;100537.69;1704083;84;21533;-73
2021/11/06 00:44:36;;;;;;;6.20;4.28;;;;;;;10.29;100.00;100542.69;1704159;84;21018;-71
2021/11/06 00:47:04;;;;;;;8.20;4.53;;;;;;;10.26;100.00;100546.67;1704123;84;21093;-70
2021/11/06 00:49:30;;;;;;;8.63;5.05;;;;;;;10.18;100.00;100554.80;1704667;84;21066;-71
2021/11/06 00:54:26;;;;;;;8.50;4.87;;;;;;;10.10;100.00;100552.86;1814253;79;28098;-72
2021/11/06 00:56:52;;;;;;;8.00;4.75;;;;;;;9.97;100.00;100563.31;1787392;80;20993;-71
2021/11/06 00:59:19;;;;;;;9.28;4.15;;;;;;;9.91;100.00;100571.36;1787006;80;21131;-72
2021/11/06 01:01:46;;;;;;;6.28;4.12;;;;;;;9.82;100.00;100572.04;1786861;80;21575;-72
2021/11/06 01:04:12;;;;;;;8.13;4.25;;;;;;;9.74;100.00;100566.11;1776173;80;21091;-71
2021/11/06 01:06:39;;;;;;;10.65;4.85;;;;;;;9.69;100.00;100574.58;1755637;81;21042;-71
2021/11/06 01:09:05;;;;;;;5.97;3.70;;;;;;;9.62;100.00;100578.28;1756198;81;21104;-71
2021/11/06 01:11:32;;;;;;;7.30;3.83;;;;;;;9.56;100.00;100586.31;1781976;80;21120;-72
2021/11/06 01:13:58;;;;;;;8.23;4.33;;;;;;;9.50;100.00;100579.45;1786906;80;21079;-72
2021/11/06 01:16:25;;;;;;;5.83;3.67;;;;;;;9.45;100.00;100580.89;1770241;80;21075;-71
2021/11/06 01:18:53;;;;;;;8.00;3.80;;;;;;;9.39;100.00;100575.77;1757076;80;20987;-72
2021/11/06 01:21:19;;;;;;;9.08;4.30;;;;;;;9.33;100.00;100574.59;1786612;80;21069;-75
2021/11/06 01:23:46;;;;;;;8.70;4.05;;;;;;;9.31;100.00;100579.03;1788100;80;21059;-72
2021/11/06 01:26:13;;;;;;;8.38;4.30;;;;;;;9.26;100.00;100586.17;1787048;80;21571;-71
2021/11/06 01:28:39;;;;;;;9.90;3.90;;;;;;;9.24;100.00;100591.91;1787575;80;21056;-71
2021/11/06 01:31:06;;;;;;;8.50;3.42;;;;;;;9.24;100.00;100602.42;1787003;80;21044;-72
2021/11/06 01:33:33;;;;;;;7.97;4.33;;;;;;;9.22;100.00;100600.28;1786890;80;21052;-72
2021/11/06 01:35:59;;;;;;;7.75;4.70;;;;;;;9.22;100.00;100597.65;1786955;80;21088;-72
2021/11/06 01:38:25;;;;;;;8.30;5.40;;;;;;;9.18;100.00;100594.70;1787019;80;21052;-71
2021/11/06 01:40:52;;;;;;;7.28;4.30;;;;;;;9.14;100.00;100595.22;1786809;80;21532;-72
2021/11/06 01:43:18;;;;;;;9.10;4.92;;;;;;;9.07;100.00;100609.40;1787211;80;21061;-72
2021/11/06 01:45:45;;;;;;;6.28;4.20;;;;;;;9.01;100.00;100620.89;1777759;79;21125;-72
2021/11/06 01:48:11;;;;;;;7.12;3.95;;;;;;;8.99;100.00;100621.38;1776552;80;21159;-72
2021/11/06 01:50:39;;;;;;;8.05;4.72;;;;;;;8.95;100.00;100615.80;1786786;80;21192;-73
2021/11/06 01:53:05;;;;;;;7.55;5.00;;;;;;;8.96;100.00;100631.11;1784554;80;21116;-72
2021/11/06 01:55:32;;;;;;;8.95;4.37;;;;;;;8.96;100.00;100637.22;1779001;80;21041;-73
2021/11/06 01:57:58;;;;;;;8.35;4.45;;;;;;;8.94;100.00;100621.94;1779322;80;21069;-73
2021/11/06 02:00:27;;;;;;;6.42;3.52;;;;;;;8.91;100.00;100619.39;1779129;80;21168;-73
2021/11/06 02:02:56;;;;;;;9.40;4.15;;;;;;;8.92;100.00;100628.98;1779268;80;21009;-74
2021/11/06 02:05:23;;;;;;;10.40;5.28;;;;;;;8.91;100.00;100637.78;1752457;80;21544;-72
2021/11/06 02:07:50;;;;;;;10.15;4.85;;;;;;;8.92;100.00;100644.74;1747707;80;21072;-71
2021/11/06 02:10:18;;;;;;;10.88;5.50;;;;;;;8.92;100.00;100660.95;1747761;82;21810;-71
2021/11/06 02:12:44;;;;;;;9.98;5.15;;;;;;;8.91;100.00;100666.67;1747938;82;21422;-73
2021/11/06 02:15:16;;;;;;;8.13;4.47;;;;;;;8.91;100.00;100662.73;1680951;85;21088;-71
2021/11/06 02:17:43;;;;;;;8.68;4.95;;;;;;;8.90;100.00;100666.23;1747911;82;21061;-74
2021/11/06 02:20:10;;;;;;;7.47;4.40;;;;;;;8.86;100.00;100665.91;1747693;82;21061;-72
2021/11/06 02:22:37;;;;;;;6.87;4.35;;;;;;;8.85;100.00;100683.00;1747931;82;21057;-73
2021/11/06 02:25:04;;;;;;;9.35;4.20;;;;;;;8.83;100.00;100685.66;1747694;82;21539;-73
2021/11/06 02:27:32;;;;;;;8.15;4.50;;;;;;;8.82;100.00;100686.56;1747590;82;21025;-72
2021/11/06 02:29:58;;;;;;;6.22;4.30;;;;;;;8.78;100.00;100684.89;1748026;82;21092;-72
2021/11/06 02:32:24;;;;;;;10.05;3.77;;;;;;;8.77;100.00;100687.97;1747910;82;21537;-71
2021/11/06 02:34:51;;;;;;;12.73;4.20;;;;;;;8.74;100.00;100692.41;1709417;83;21090;-72
2021/11/06 02:37:18;;;;;;;10.88;5.03;;;;;;;8.74;100.00;100706.85;1748104;81;21137;-72
2021/11/06 02:39:46;;;;;;;8.80;4.80;;;;;;;8.72;100.00;100706.02;1747951;82;21056;-73
2021/11/06 02:42:13;;;;;;;9.98;5.10;;;;;;;8.67;100.00;100714.44;1748147;82;21042;-72
2021/11/06 02:44:41;;;;;;;9.28;5.00;;;;;;;8.64;100.00;100706.63;1749233;82;21533;-72
2021/11/06 02:47:08;;;;;;;7.97;4.28;;;;;;;8.59;100.00;100708.89;1751905;82;20990;-72
2021/11/06 02:49:34;;;;;;;9.68;4.75;;;;;;;8.57;100.00;100714.62;1713157;83;21144;-73
2021/11/06 02:52:02;;;;;;;5.28;3.27;;;;;;;8.55;100.00;100719.03;1751009;82;20998;-71
2021/11/06 02:54:28;;;;;;;8.10;4.55;;;;;;;8.53;100.00;100725.20;1743786;82;21049;-74
2021/11/06 02:56:55;;;;;;;7.12;4.10;;;;;;;8.54;100.00;100723.88;1742623;82;21096;-73
2021/11/06 02:59:22;;;;;;;4.62;3.37;;;;;;;8.51;100.00;100721.33;1742292;82;21054;-73
2021/11/06 03:01:49;;;;;;;9.08;4.65;;;;;;;8.49;100.00;100724.42;1742311;82;21157;-72
2021/11/06 03:04:16;;;;;;;5.87;3.58;;;;;;;8.49;100.00;100740.17;1754022;80;21066;-73
2021/11/06 03:06:43;;;;;;;10.23;4.10;;;;;;;8.45;100.00;100737.17;1772779;80;21053;-75
2021/11/06 03:09:10;;;;;;;8.35;4.72;;;;;;;8.42;100.00;100746.43;1772888;80;21101;-73
2021/11/06 03:11:37;;;;;;;7.72;4.45;;;;;;;8.37;100.00;100743.86;1772847;80;21105;-72
2021/11/06 03:14:05;;;;;;;8.48;4.70;;;;;;;8.34;100.00;100746.97;1772903;80;21493;-73
2021/11/06 03:16:32;;;;;;;11.75;5.15;;;;;;;8.30;100.00;100751.84;1772482;80;21551;-73
2021/11/06 03:18:59;;;;;;;8.53;4.35;;;;;;;8.26;100.00;100759.34;1772940;80;21068;-74
2021/11/06 03:21:27;;;;;;;8.50;4.80;;;;;;;8.22;100.00;100754.61;1772521;80;21505;-72
2021/11/06 03:23:54;;;;;;;9.30;4.60;;;;;;;8.19;100.00;100753.37;1772947;80;21057;-71
2021/11/06 03:26:21;;;;;;;8.38;4.58;;;;;;;8.15;100.00;100750.38;1772773;80;21707;-74
2021/11/06 03:28:47;;;;;;;10.55;4.95;;;;;;;8.11;100.00;100760.03;1773216;80;21030;-73
2021/11/06 03:31:13;;;;;;;7.47;4.40;;;;;;;8.09;100.00;100753.95;1772834;80;21362;-73
2021/11/06 03:33:40;;;;;;;10.43;5.33;;;;;;;8.07;100.00;100747.00;1773114;80;21078;-72
2021/11/06 03:36:06;;;;;;;10.40;4.78;;;;;;;8.06;100.00;100750.07;1772960;80;21026;-72
2021/11/06 03:38:33;;;;;;;5.67;4.15;;;;;;;8.04;100.00;100741.81;1775275;80;21124;-72
2021/11/06 03:41:00;;;;;;;7.42;4.70;;;;;;;8.02;100.00;100731.79;1776783;80;21094;-72
2021/11/06 03:43:26;;;;;;;4.85;2.98;;;;;;;8.01;100.00;100727.00;1772943;80;21117;-72
2021/11/06 03:45:53;;;;;;;7.00;4.85;;;;;;;7.97;100.00;100725.31;1772620;80;21105;-72
2021/11/06 03:48:20;;;;;;;7.75;4.30;;;;;;;7.97;100.00;100725.31;1772641;80;21148;-72
2021/11/06 03:50:47;;;;;;;8.80;4.50;;;;;;;7.96;100.00;100719.20;1772466;80;21185;-74
2021/11/06 03:53:14;;;;;;;8.40;4.80;;;;;;;7.97;100.00;100713.50;1784932;79;21042;-73
2021/11/06 03:55:40;;;;;;;7.78;4.60;;;;;;;7.98;100.00;100720.47;1794234;79;21071;-70
2021/11/06 03:58:09;;;;;;;7.50;5.10;;;;;;;7.94;100.00;100735.86;1695684;83;21140;-71
2021/11/06 04:00:38;;;;;;;8.10;5.15;;;;;;;7.93;100.00;100735.42;1793734;79;21031;-71
2021/11/06 04:03:06;;;;;;;;;;;;;;;7.88;100.00;100728.94;1711118;82;21298;-70
2021/11/06 04:05:34;;;;;;;8.80;5.22;;;;;;;7.86;100.00;100732.48;1705823;83;20212;-71
2021/11/06 04:08:00;;;;;;;9.78;5.17;;;;;;;7.81;100.00;100733.02;1710265;83;21083;-73
2021/11/06 04:10:27;;;;;;;8.58;5.62;;;;;;;7.73;100.00;100730.06;1710149;82;21146;-71
2021/11/06 04:12:54;;;;;;;9.50;6.15;;;;;;;7.72;100.00;100740.12;1700370;83;21809;-72
2021/11/06 04:15:21;;;;;;;8.95;5.20;;;;;;;7.69;100.00;100739.31;1755808;80;21597;-72
2021/11/06 04:17:47;;;;;;;9.28;6.25;;;;;;;7.64;100.00;100733.25;1754391;80;21544;-72
2021/11/06 04:20:14;;;;;;;10.50;5.62;;;;;;;7.65;100.00;100733.69;1757068;80;21378;-72
2021/11/06 04:22:40;;;;;;;10.65;6.05;;;;;;;7.64;100.00;100735.45;1763053;81;21160;-71
2021/11/06 04:25:08;;;;;;;12.30;7.22;;;;;;;7.63;100.00;100740.26;1763148;81;21046;-72
2021/11/06 04:27:35;;;;;;;11.83;6.72;;;;;;;7.64;100.00;100745.94;1762855;81;21131;-71
2021/11/06 04:30:04;;;;;;;15.68;7.47;;;;;;;7.61;100.00;100740.72;1763380;81;21054;-71
2021/11/06 04:32:30;;;;;;;11.85;6.90;;;;;;;7.59;100.00;100742.95;1762947;81;21054;-73
2021/11/06 04:34:57;;;;;;;9.80;4.67;;;;;;;7.56;100.00;100739.94;1762786;81;21055;-74
2021/11/06 04:37:23;;;;;;;14.15;7.60;;;;;;;7.53;100.00;100732.13;1764843;80;21093;-74
2021/11/06 04:39:49;;;;;;;10.98;5.83;;;;;;;7.56;100.00;100732.06;1773411;80;21568;-73
2021/11/06 04:42:16;;;;;;;10.90;6.20;;;;;;;7.56;100.00;100725.52;1770330;80;21154;-72
2021/11/06 04:44:42;;;;;;;8.58;6.00;;;;;;;7.57;100.00;100736.44;1767463;80;21024;-73
2021/11/06 04:47:09;;;;;;;7.60;4.95;;;;;;;7.54;100.00;100727.29;1772348;80;21022;-72
2021/11/06 04:49:36;;;;;;;9.58;6.40;;;;;;;7.50;100.00;100744.84;1764863;79;21662;-71
2021/11/06 04:52:04;;;;;;;9.23;5.60;;;;;;;7.51;100.00;100750.48;1769519;80;21144;-71
2021/11/06 04:54:30;;;;;;;11.97;7.22;;;;;;;7.48;100.00;100748.38;1779646;80;21011;-71
2021/11/06 04:56:57;;;;;;;14.70;8.15;;;;;;;7.49;100.00;100751.40;1778552;80;21111;-71
2021/11/06 04:59:24;;;;;;;11.43;7.60;;;;;;;7.46;100.00;100742.28;1778699;80;21038;-71
2021/11/06 05:01:50;;;;;;;14.43;8.05;;;;;;;7.45;100.00;100740.53;1778840;80;21640;-73
2021/11/06 05:04:17;;;;;;;14.70;7.30;;;;;;;7.49;100.00;100748.78;1766251;80;21128;-71
2021/11/06 05:06:45;;;;;;;10.82;6.33;;;;;;;7.47;100.00;100733.06;1747317;82;21018;-70
2021/11/06 05:09:11;;;;;;;11.50;5.62;;;;;;;7.46;100.00;100739.66;1747278;82;21049;-71
2021/11/06 05:11:39;;;;;;;8.78;5.55;;;;;;;7.46;100.00;100756.24;1767407;80;21022;-71
2021/11/06 05:14:06;;;;;;;10.65;6.90;;;;;;;7.44;100.00;100759.77;1709312;83;21113;-72
2021/11/06 05:16:33;;;;;;;8.95;6.05;;;;;;;7.42;100.00;100759.79;1772397;80;22095;-70
2021/11/06 05:19:00;;;;;;;5.80;3.90;;;;;;;7.40;100.00;100756.77;1747255;82;21046;-69
2021/11/06 05:21:34;;;;;;;12.28;6.58;;;;;;;7.40;100.00;100772.04;1748267;82;21007;-71
2021/11/06 05:23:54;;;;;;;10.10;5.75;;;;;;;7.43;100.00;100777.68;1747119;82;21231;-72
2021/11/06 05:26:21;;;;;;;9.23;6.62;;;;;;;7.41;100.00;100779.45;1748820;81;21076;-72
2021/11/06 05:28:47;;;;;;;10.18;6.78;;;;;;;7.41;100.00;100780.77;1681996;85;21765;-72
2021/11/06 05:31:13;;;;;;;8.70;6.00;;;;;;;7.41;100.00;100775.52;1748403;82;21296;-72
2021/11/06 05:33:41;;;;;;;13.83;6.80;;;;;;;7.41;100.00;100779.45;1747665;82;21101;-72
2021/11/06 05:36:09;;;;;;;8.65;5.97;;;;;;;7.44;100.00;100779.44;1720142;82;21564;-71
2021/11/06 05:38:36;;;;;;;10.95;6.45;;;;;;;7.44;100.00;100784.67;1695379;83;21006;-72
2021/11/06 05:41:04;;;;;;;11.55;7.20;;;;;;;7.47;100.00;100784.62;1736167;82;21453;-73
2021/11/06 05:43:31;;;;;;;10.28;7.30;;;;;;;7.50;100.00;100788.50;1696499;83;21175;-72
2021/11/06 05:45:57;;;;;;;14.28;7.40;;;;;;;7.51;100.00;100785.01;1730450;82;21185;-72
2021/11/06 05:48:24;;;;;;;9.33;7.17;;;;;;;7.52;100.00;100786.31;1712932;82;21578;-73
2021/11/06 05:50:50;;;;;;;10.88;7.08;;;;;;;7.51;100.00;100787.17;1710814;83;21148;-72
2021/11/06 05:53:17;;;;;;;10.85;6.87;;;;;;;7.54;100.00;100794.13;1750917;79;21165;-73
2021/11/06 05:55:44;;;;;;;10.80;6.72;;;;;;;7.55;100.00;100791.50;1764945;79;21064;-73
2021/11/06 05:58:11;;;;;;;10.80;6.90;;;;;;;7.57;100.00;100795.42;1772313;80;21024;-72
2021/11/06 06:00:37;;;;;;;9.75;6.80;;;;;;;7.54;100.00;100794.13;1765006;81;21010;-73
2021/11/06 06:03:04;;;;;;;9.78;6.30;;;;;;;7.53;100.00;100793.72;1762955;80;21061;-73
2021/11/06 06:05:30;;;;;;;11.00;6.65;;;;;;;7.55;100.00;100801.98;1694555;83;21818;-70
2021/11/06 06:07:59;;;;;;;8.45;4.47;;;;;;;7.60;100.00;100795.36;1752874;80;21010;-74
2021/11/06 06:10:25;;;;;;;12.30;7.62;;;;;;;7.60;100.00;100795.36;1755846;80;21134;-71
2021/11/06 06:12:53;;;;;;;9.70;6.42;;;;;;;7.62;100.00;100797.52;1769150;80;21077;-72
2021/11/06 06:15:22;;;;;;;10.65;6.05;;;;;;;7.67;100.00;100802.25;1776657;80;21077;-71
2021/11/06 06:17:50;;;;;;;9.60;6.40;;;;;;;7.64;100.00;100800.98;1768844;79;21565;-72
2021/11/06 06:20:17;;;;;;;11.88;6.78;;;;;;;7.64;100.00;100801.41;1763451;80;21069;-73
2021/11/06 06:22:45;;;;;;;9.70;4.12;;;;;;;7.62;100.00;100806.70;1778251;79;21082;-71
2021/11/06 06:25:12;;;;;;;10.72;5.35;;;;;;;7.60;100.00;100804.54;1762671;79;21041;-72
2021/11/06 06:27:39;;;;;;;9.55;4.83;;;;;;;7.61;100.00;100814.57;1757680;80;21425;-72
2021/11/06 06:30:10;;;;;;;11.12;5.53;;;;;;;7.60;100.00;100820.27;1762188;80;21517;-73
2021/11/06 06:32:37;;;;;;;8.40;6.10;;;;;;;7.86;100.00;100820.33;1776249;80;21108;-73
2021/11/06 06:35:05;;;;;;;8.48;5.72;;;;;;;8.45;100.00;100825.11;1747751;82;21062;-74
2021/11/06 06:37:32;;;;;;;7.58;5.30;;;;;;;9.23;100.00;100820.16;1747827;82;21093;-71
2021/11/06 06:39:59;;;;;;;9.50;5.50;;;;;;;10.15;100.00;100818.09;1747931;82;21073;-73
2021/11/06 06:42:25;;;;;;;8.53;5.03;;;;;;;11.01;100.00;100822.93;1756890;80;21591;-73
2021/11/06 06:44:53;;;;;;;8.60;5.12;;;;;;;11.84;96.38;100832.36;1778756;80;21030;-71
2021/11/06 06:47:22;;;;;;;6.17;4.12;;;;;;;12.57;90.24;100838.39;1776985;80;21136;-73
2021/11/06 06:49:51;;;;;;;5.80;4.50;;;;;;;13.16;83.43;100827.49;1769873;80;21033;-73
2021/11/06 06:52:18;;;;;;;6.28;4.45;;;;;;;13.69;79.42;100822.89;1763393;80;21385;-72
2021/11/06 06:54:46;;;;;;;6.42;4.55;;;;;;;14.09;78.95;100826.63;1760089;81;21115;-73
2021/11/06 06:57:15;;;;;;;6.30;4.53;;;;;;;14.59;76.78;100817.08;1679797;84;21657;-72
2021/11/06 06:59:43;;;;;;;4.33;3.83;;;;;;;14.94;70.62;100814.67;1759999;81;21102;-74
2021/11/06 07:02:10;;;;;;;6.60;4.50;;;;;;;15.19;72.69;100813.97;1757050;80;21046;-74
2021/11/06 07:04:38;;;;;;;7.75;4.67;;;;;;;15.69;70.76;100821.39;1756276;79;21588;-73
2021/11/06 07:07:06;;;;;;;5.03;3.70;;;;;;;16.30;67.77;100820.70;1742007;82;21798;-73
2021/11/06 07:09:32;;;;;;;5.85;3.75;;;;;;;16.71;63.18;100829.72;1742109;82;21578;-72
2021/11/06 07:12:01;;;;;;;7.62;4.28;;;;;;;17.08;58.67;100825.16;1742223;80;20986;-72
2021/11/06 07:14:29;;;;;;;6.28;4.30;;;;;;;17.31;61.25;100825.27;1706341;84;21049;-73
2021/11/06 07:16:56;;;;;;;9.68;4.33;;;;;;;17.57;54.66;100828.67;1742323;82;21041;-72
2021/11/06 07:19:23;;;;;;;8.18;4.33;;;;;;;17.85;53.08;100828.98;1742101;82;21859;-73
2021/11/06 07:21:49;;;;;;;7.95;4.05;;;;;;;18.28;52.00;100826.54;1742545;82;21038;-73
2021/11/06 07:24:16;;;;;;;4.95;3.70;;;;;;;18.75;48.93;100818.41;1744534;80;21018;-72
2021/11/06 07:26:42;;;;;;;5.25;3.80;;;;;;;18.80;48.28;100817.67;1748363;82;21089;-74
2021/11/06 07:29:08;;;;;;;6.00;4.22;;;;;;;18.79;45.97;100818.61;1685924;85;21144;-73
2021/11/06 07:31:36;;;;;;;5.12;3.52;;;;;;;18.92;46.38;100817.41;1762658;79;21145;-73
2021/11/06 07:34:03;;;;;;;7.28;4.75;;;;;;;19.09;47.04;100812.35;1755061;79;21159;-86
2021/11/06 07:36:29;;;;;;;6.58;4.12;;;;;;;19.06;43.38;100811.22;1661115;85;21532;-84
2021/11/06 07:38:59;;;;;;;5.97;3.75;;;;;;;19.08;43.30;100814.17;1661177;86;21575;-83
2021/11/06 07:41:26;;;;;;;6.37;4.00;;;;;;;19.27;44.79;100810.36;1658435;85;21080;-85
2021/11/06 07:43:54;;;;;;;6.15;4.10;;;;;;;19.49;42.29;100805.87;1655377;86;21152;-85
2021/11/06 07:46:21;;;;;;;5.25;4.22;;;;;;;19.67;44.02;100814.53;1658682;86;21025;-84
2021/11/06 07:48:49;;;;;;;6.30;4.30;;;;;;;19.73;40.72;100807.47;1658930;86;21543;-85
2021/11/06 07:51:16;;;;;;;7.00;4.50;;;;;;;19.93;41.91;100814.69;1659345;86;21092;-85
2021/11/06 07:53:44;;;;;;;6.22;4.50;;;;;;;20.14;41.67;100815.08;1661253;86;21113;-84
2021/11/06 07:56:11;;;;;;;10.15;6.17;;;;;;;20.39;39.43;100822.33;1654766;86;21078;-85
2021/11/06 07:58:38;;;;;;;6.20;4.40;;;;;;;20.57;40.09;100826.47;1657824;86;21100;-84
2021/11/06 08:01:05;;;;;;;6.28;4.60;;;;;;;20.72;38.98;100836.60;1661516;86;21021;-84
2021/11/06 08:03:31;;;;;;;6.60;4.00;;;;;;;20.74;37.28;100840.88;1661873;85;21077;-86
2021/11/06 08:05:58;;;;;;;6.87;4.40;;;;;;;20.32;39.51;100844.13;1661504;85;21575;-84
2021/11/06 08:08:25;;;;;;;7.95;5.00;;;;;;;20.58;39.46;100852.26;1661061;86;21179;-83
2021/11/06 08:10:51;;;;;;;12.05;5.33;;;;;;;21.06;39.75;100849.86;1661020;85;21112;-85
2021/11/06 08:13:19;;;;;;;7.65;5.03;;;;;;;21.34;37.64;100845.24;1643870;86;21133;-86
2021/11/06 08:15:46;;;;;;;8.15;4.20;;;;;;;21.53;37.19;100856.41;1660989;86;21548;-84
2021/11/06 08:18:12;;;;;;;5.95;4.37;;;;;;;21.61;34.86;100849.16;1661276;86;21112;-84
2021/11/06 08:20:40;;;;;;;7.95;4.35;;;;;;;21.22;34.99;100859.02;1661471;86;21495;-84
2021/11/06 08:23:07;;;;;;;5.50;4.37;;;;;;;21.07;36.54;100861.42;1659211;86;21118;-86
2021/11/06 08:25:35;;;;;;;7.53;5.05;;;;;;;21.21;37.19;100868.49;1660772;86;21112;-85
2021/11/06 08:28:03;;;;;;;6.67;4.12;;;;;;;21.23;35.00;100868.76;1656074;86;21045;-84
2021/11/06 08:30:31;;;;;;;7.25;4.25;;;;;;;21.34;37.19;100866.67;1658671;86;21081;-86
2021/11/06 08:32:58;;;;;;;5.40;4.05;;;;;;;21.48;34.61;100866.58;1661228;86;21478;-83
2021/11/06 08:35:27;;;;;;;6.40;4.42;;;;;;;21.24;33.93;100868.30;1664291;86;21080;-84
2021/11/06 08:37:54;;;;;;;5.55;4.60;;;;;;;20.77;36.41;100877.28;1647735;86;21136;-85
2021/11/06 08:40:21;;;;;;;6.05;4.00;;;;;;;20.52;35.75;100876.70;1625474;87;21077;-85
2021/11/06 08:42:49;;;;;;;5.37;3.90;;;;;;;20.44;36.67;100873.70;1658937;85;21118;-85
2021/11/06 08:45:15;;;;;;;7.90;4.28;;;;;;;20.59;36.12;100866.03;1648015;86;21118;-87
2021/11/06 08:47:43;;;;;;;5.65;4.30;;;;;;;20.79;35.94;100858.45;1632541;85;21502;-86
2021/11/06 08:50:15;;;;;;;5.85;3.87;;;;;;;21.07;36.38;100862.30;1694530;84;21045;-86
2021/11/06 08:52:42;;;;;;;5.25;3.60;;;;;;;21.63;34.43;100861.12;1629933;87;21374;-87
2021/11/06 08:55:09;;;;;;;9.03;4.28;;;;;;;21.87;32.66;100856.64;1654608;85;21003;-85
2021/11/06 08:57:37;;;;;;;6.17;4.12;;;;;;;21.88;35.17;100853.01;1646541;87;21546;-86
2021/11/06 09:00:18;;;;;;;5.53;4.12;;;;;;;21.95;32.90;100850.24;1646987;87;21062;-87
2021/11/06 09:02:45;;;;;;;6.05;4.33;;;;;;;22.02;34.58;100845.75;1649574;86;21097;-82
2021/11/06 09:05:12;;;;;;;4.67;3.75;;;;;;;22.09;32.32;100859.95;1687408;84;21057;-87
2021/11/06 09:07:38;;;;;;;7.83;4.65;;;;;;;21.95;31.89;100850.73;1620822;87;21744;-87
2021/11/06 09:10:12;;;;;;;6.42;4.62;;;;;;;21.89;34.04;100856.05;1636066;85;21021;-88
2021/11/06 09:12:39;;;;;;;7.83;4.53;;;;;;;21.95;32.64;100840.02;1613757;89;21796;-88
2021/11/06 09:15:08;;;;;;;5.80;3.92;;;;;;;22.15;33.06;100838.52;1613989;87;21053;-88
2021/11/06 09:17:35;;;;;;;5.90;3.80;;;;;;;22.22;32.73;100831.75;1613376;89;21105;-87
2021/11/06 09:20:04;;;;;;;5.37;3.65;;;;;;;22.30;31.16;100837.41;1626577;87;21086;-87
2021/11/06 09:22:31;;;;;;;5.58;4.28;;;;;;;22.17;32.02;100835.23;1623023;87;21178;-87
2021/11/06 09:24:58;;;;;;;5.92;3.77;;;;;;;22.14;31.64;100834.13;1659703;86;21034;-87
2021/11/06 09:27:25;;;;;;;4.92;3.60;;;;;;;22.35;32.04;100841.09;1633421;87;21014;-88
2021/11/06 09:29:51;;;;;;;8.35;3.60;;;;;;;22.57;31.73;100833.63;1668984;86;21048;-86
2021/11/06 09:32:20;;;;;;;4.40;3.20;;;;;;;22.78;29.70;100827.94;1634111;86;21108;-88
2021/11/06 09:34:47;;;;;;;4.40;3.05;;;;;;;23.08;30.39;100821.19;1584710;89;21176;-85
2021/11/06 09:37:14;;;;;;;5.70;4.03;;;;;;;23.33;30.20;100820.56;1611743;89;21093;-84
2021/11/06 09:39:41;;;;;;;5.67;3.58;;;;;;;23.45;29.52;100824.98;1630239;88;21185;-86
2021/11/06 09:42:08;;;;;;;5.33;3.12;;;;;;;23.53;30.00;100822.52;1632378;88;21157;-82
2021/11/06 09:44:35;;;;;;;5.55;3.47;;;;;;;23.48;28.68;100822.03;1628929;88;21164;-83
2021/11/06 09:47:05;;;;;;;4.95;3.72;;;;;;;23.55;29.72;100825.09;1627494;87;22142;-83
2021/11/06 09:49:32;;;;;;;5.75;4.00;;;;;;;23.80;30.47;100830.21;1616265;86;22088;-82
2021/11/06 09:51:58;;;;;;;6.58;3.50;;;;;;;23.90;28.28;100824.92;1628104;88;21168;-83
2021/11/06 09:54:25;;;;;;;6.97;4.35;;;;;;;23.61;29.72;100825.45;1610215;89;21136;-82
2021/11/06 09:56:52;;;;;;;5.08;3.30;;;;;;;23.63;28.97;100823.49;1628877;88;21093;-85
2021/11/06 09:59:19;;;;;;;5.42;3.05;;;;;;;23.75;28.20;100828.89;1610717;89;21166;-85
2021/11/06 10:01:45;;;;;;;6.45;3.60;;;;;;;23.75;28.97;100819.48;1625524;88;21181;-82
2021/11/06 10:04:12;;;;;;;5.28;3.20;;;;;;;23.88;28.19;100810.78;1629816;87;21163;-82
2021/11/06 10:06:45;;;;;;;5.78;3.00;;;;;;;23.78;29.51;100815.19;1626059;88;21108;-83
2021/11/06 10:09:14;;;;;;;6.60;2.70;;;;;;;23.85;28.13;100809.66;1610739;89;21127;-83
2021/11/06 10:11:49;;;;;;;7.65;3.27;;;;;;;23.89;27.50;100800.86;1658710;86;21137;-83
2021/11/06 10:14:19;;;;;;;4.95;3.98;;;;;;;23.90;28.76;100803.41;1659338;86;21132;-83
2021/11/06 10:16:56;;;;;;;5.60;3.67;;;;;;;23.87;27.72;100807.21;1647872;86;21767;-82
2021/11/06 10:19:31;;;;;;;6.90;3.75;;;;;;;23.69;28.17;100809.18;1641814;86;21126;-82
2021/11/06 10:22:10;;;;;;;3.62;3.05;;;;;;;23.43;28.36;100805.43;1649800;86;21100;-83
2021/11/06 10:24:52;;;;;;;3.98;3.15;;;;;;;23.17;27.27;100800.80;1645807;86;21138;-82
2021/11/06 10:27:32;;;;;;;6.92;4.10;;;;;;;22.02;28.88;100814.45;1627481;86;21161;-80
2021/11/06 10:30:05;;;;;;;;;;;;;;;21.18;31.29;100812.48;1655358;86;21076;-83
2021/11/06 10:32:35;;;;;;;7.40;4.53;;;;;;;20.98;30.95;100817.42;1655790;86;20527;-81
2021/11/06 10:35:19;;;;;;;8.25;4.97;;;;;;;20.78;31.72;100809.91;1654024;86;21140;-82
2021/11/06 10:37:49;;;;;;;5.28;3.85;;;;;;;20.47;32.71;100811.95;1644134;86;21141;-81
2021/11/06 10:40:20;;;;;;;5.83;4.47;;;;;;;19.83;32.15;100819.30;1657957;85;21061;-82
2021/11/06 10:42:55;;;;;;;5.22;3.80;;;;;;;19.34;34.69;100821.03;1656865;86;21057;-83
2021/11/06 10:45:25;;;;;;;6.72;4.33;;;;;;;18.92;34.45;100821.41;1659494;86;21101;-81
2021/11/06 10:48:03;;;;;;;6.10;3.85;;;;;;;18.72;34.26;100823.91;1660100;86;21156;-79
2021/11/06 10:50:51;;;;;;;6.17;3.60;;;;;;;18.52;37.04;100825.11;1659764;86;21203;-82
2021/11/06 10:53:48;;;;;;;6.72;4.03;;;;;;;18.43;35.71;100820.32;1659370;86;21173;-83
2021/11/06 10:56:43;;;;;;;4.65;3.92;;;;;;;18.15;35.30;100813.93;1650334;86;21043;-82
2021/11/06 10:59:15;;;;;;;7.80;3.90;;;;;;;17.93;37.91;100810.77;1632407;86;21059;-81
2021/11/06 11:01:45;;;;;;;5.72;3.98;;;;;;;17.63;36.53;100810.18;1644378;86;21400;-80
2021/11/06 11:04:17;;;;;;;5.00;3.60;;;;;;;17.16;37.25;100812.29;1661331;86;21683;-83
2021/11/06 11:06:56;;;;;;;6.12;4.22;;;;;;;16.57;39.58;100807.34;1664656;86;21030;-81
2021/11/06 11:09:27;;;;;;;7.93;4.03;;;;;;;16.29;40.46;100823.83;1664894;86;21018;-83
2021/11/06 11:12:00;;;;;;;5.25;3.60;;;;;;;16.56;39.14;100809.63;1664426;86;21084;-83
2021/11/06 11:14:29;;;;;;;5.60;3.67;;;;;;;17.21;39.86;100802.28;1653407;86;21046;-84
2021/11/06 11:16:58;;;;;;;6.65;3.77;;;;;;;17.82;37.19;100807.38;1640270;86;22065;-84
2021/11/06 11:19:38;;;;;;;6.60;3.08;;;;;;;18.35;36.83;100798.56;1640739;87;21709;-81
2021/11/06 11:22:29;;;;;;;6.60;4.25;;;;;;;18.65;37.58;100805.22;1640418;86;21117;-83
2021/11/06 11:24:55;;;;;;;9.00;4.40;;;;;;;18.95;35.36;100801.19;1640814;87;21080;-83
2021/11/06 11:27:22;;;;;;;6.10;4.12;;;;;;;19.15;35.77;100797.78;1648388;86;21117;-82
2021/11/06 11:29:49;;;;;;;7.00;4.08;;;;;;;19.42;36.26;100798.72;1642260;86;21993;-81